createdAt,value
2022-10-31T18:15:30.940Z,45.63
2022-10-31T18:17:58.211Z,37.35
2022-10-31T18:20:25.526Z,50.35
2022-10-31T18:22:52.667Z,55.15
2022-10-31T18:25:20.247Z,43.35
2022-10-31T18:27:47.747Z,45.30
2022-10-31T18:30:15.114Z,38.67
2022-10-31T18:32:42.607Z,41.28
2022-10-31T18:35:10.907Z,59.33
2022-10-31T18:37:38.533Z,49.80
2022-10-31T18:40:06.312Z,42.13
2022-10-31T18:42:33.544Z,42.10
2022-10-31T18:45:11.194Z,49.95
2022-10-31T18:47:44.907Z,45.90
2022-10-31T18:50:12.673Z,52.05
2022-10-31T18:52:41.405Z,43.25
2022-10-31T18:55:09.295Z,43.45
2022-10-31T18:57:36.670Z,52.65
2022-10-31T19:00:08.418Z,44.47
2022-10-31T19:02:37.129Z,51.05
2022-10-31T19:05:05.626Z,39.83
2022-10-31T19:07:34.373Z,40.40
2022-10-31T19:10:01.453Z,43.70
2022-10-31T19:12:28.597Z,39.38
2022-10-31T19:14:55.601Z,41.42
2022-10-31T19:17:25.539Z,39.40
2022-10-31T19:19:53.133Z,40.65
2022-10-31T19:22:20.214Z,39.50
2022-10-31T19:24:48.490Z,39.20
2022-10-31T19:27:15.935Z,38.35
2022-10-31T19:29:43.490Z,39.65
2022-10-31T19:32:10.994Z,39.20
2022-10-31T19:34:38.481Z,39.92
2022-10-31T19:37:05.423Z,35.42
2022-10-31T19:39:38.634Z,36.38
2022-10-31T19:42:08.445Z,38.88
2022-10-31T19:44:35.660Z,38.88
2022-10-31T19:47:02.602Z,37.15
2022-10-31T19:49:30.126Z,38.13
2022-10-31T19:51:57.946Z,41.40
2022-10-31T19:54:25.556Z,36.70
2022-10-31T19:56:56.002Z,37.35
2022-10-31T19:59:23.381Z,36.38
2022-10-31T20:01:50.935Z,34.53
2022-10-31T20:04:18.523Z,37.38
2022-10-31T20:06:45.872Z,36.72
2022-10-31T20:09:14.745Z,39.50
2022-10-31T20:11:44.986Z,35.97
2022-10-31T20:14:15.090Z,37.33
2022-10-31T20:16:43.179Z,37.30
2022-10-31T20:19:10.143Z,36.92
2022-10-31T20:21:40.234Z,41.70
2022-10-31T20:24:09.941Z,38.50
2022-10-31T20:26:39.684Z,37.05
2022-10-31T20:29:07.586Z,39.50
2022-10-31T20:31:37.177Z,43.03
2022-10-31T20:34:05.321Z,38.33
2022-10-31T20:36:32.608Z,40.88
2022-10-31T20:39:00.539Z,39.28
2022-10-31T20:41:27.813Z,38.25
2022-10-31T20:43:55.161Z,37.83
2022-10-31T20:46:24.956Z,35.90
2022-10-31T20:48:53.172Z,39.72
2022-10-31T20:51:25.477Z,36.25
2022-10-31T20:53:54.380Z,38.28
2022-10-31T20:56:24.902Z,39.67
2022-10-31T20:58:52.504Z,38.15
2022-10-31T21:01:25.131Z,40.80
2022-10-31T21:03:52.746Z,37.90
2022-10-31T21:06:21.756Z,38.15
2022-10-31T21:08:49.240Z,37.28
2022-10-31T21:11:21.758Z,40.80
2022-10-31T21:13:50.373Z,44.35
2022-10-31T21:16:23.789Z,45.53
2022-10-31T21:18:52.161Z,43.28
2022-10-31T21:21:32.003Z,39.60
2022-10-31T21:24:21.283Z,39.83
2022-10-31T21:26:51.255Z,39.95
2022-10-31T21:29:20.118Z,38.80
2022-10-31T21:31:48.800Z,38.83
2022-10-31T21:34:16.118Z,39.63
2022-10-31T21:36:43.123Z,42.13
2022-10-31T21:39:10.452Z,41.20
2022-10-31T21:41:37.843Z,41.05
2022-10-31T21:44:05.272Z,41.70
2022-10-31T21:46:33.827Z,42.70
2022-10-31T21:49:03.075Z,41.28
2022-10-31T21:51:34.472Z,44.60
2022-10-31T21:54:20.963Z,41.53
2022-10-31T21:56:48.136Z,42.20
2022-10-31T21:59:15.301Z,41.28
2022-10-31T22:01:42.356Z,41.58
2022-10-31T22:04:09.793Z,43.65
2022-10-31T22:06:36.892Z,41.47
2022-10-31T22:09:06.740Z,40.00
2022-10-31T22:11:34.615Z,41.70
2022-10-31T22:14:02.484Z,42.95
2022-10-31T22:16:30.903Z,43.67
2022-10-31T22:18:59.979Z,43.80
2022-10-31T22:21:28.606Z,49.92
2022-10-31T22:24:03.295Z,45.90
2022-10-31T22:26:32.678Z,47.60
2022-10-31T22:29:00.898Z,46.92
2022-10-31T22:31:29.340Z,49.08
2022-10-31T22:33:56.808Z,51.40
2022-10-31T22:36:29.647Z,51.58
2022-10-31T22:38:57.876Z,51.65
2022-10-31T22:41:27.590Z,49.72
2022-10-31T22:43:55.643Z,51.88
2022-10-31T22:46:28.020Z,54.58
2022-10-31T22:49:00.456Z,50.95
2022-10-31T22:51:33.142Z,53.38
2022-10-31T22:54:00.590Z,53.08
2022-10-31T22:56:33.202Z,54.97
2022-10-31T22:59:01.128Z,53.57
2022-10-31T23:01:31.501Z,55.80
2022-10-31T23:03:58.671Z,53.03
2022-10-31T23:06:27.711Z,55.92
2022-10-31T23:08:54.946Z,60.25
2022-10-31T23:11:21.964Z,54.83
2022-10-31T23:14:09.763Z,60.28
2022-10-31T23:16:38.134Z,59.08
2022-10-31T23:19:08.371Z,61.13
2022-10-31T23:21:55.988Z,60.35
2022-10-31T23:24:43.302Z,62.67
2022-10-31T23:27:15.877Z,61.85
2022-10-31T23:29:52.786Z,65.33
2022-10-31T23:32:22.618Z,67.10
2022-10-31T23:34:52.692Z,64.40
2022-10-31T23:37:22.100Z,61.95
2022-10-31T23:39:49.329Z,62.70
2022-10-31T23:42:17.217Z,61.00
2022-10-31T23:44:44.597Z,58.92
2022-10-31T23:47:12.323Z,64.30
2022-10-31T23:49:39.328Z,63.80
2022-10-31T23:52:07.316Z,67.80
2022-10-31T23:54:34.428Z,65.75
2022-10-31T23:57:01.706Z,65.20
2022-10-31T23:59:31.448Z,68.28
